Time;durP1;ratioP1;P1;durP2;ratioP2;P2;SDS_P1;SDS_P2;PMS_P1;PMS_P2;Temp;Humidity;BMP_temperature;BMP_pressure;BME280_temperature;BME280_humidity;BME280_pressure;Samples;Min_cycle;Max_cycle;Signal;HPM_P1;HPM_P2
2021/12/20 00:01:55;;;;;;;26.42;5.20;;;7.10;99.90;;;;;;5003986;28;20052;-63
2021/12/20 00:04:21;;;;;;;23.77;4.70;;;7.10;99.90;;;;;;5010674;28;20045;-63
2021/12/20 00:06:47;;;;;;;22.45;4.13;;;7.10;99.90;;;;;;5000080;28;20048;-62
2021/12/20 00:09:12;;;;;;;30.20;4.40;;;7.10;99.90;;;;;;5002942;28;20079;-63
2021/12/20 00:11:38;;;;;;;30.50;6.10;;;7.10;99.90;;;;;;4972835;28;20045;-63
2021/12/20 00:14:04;;;;;;;23.50;4.50;;;7.10;99.90;;;;;;5008352;28;20489;-63
2021/12/20 00:16:30;;;;;;;24.83;4.38;;;7.10;99.90;;;;;;5003932;28;20065;-62
2021/12/20 00:18:55;;;;;;;21.55;4.00;;;7.10;99.90;;;;;;5007918;28;20442;-63
2021/12/20 00:21:21;;;;;;;25.25;5.35;;;7.00;99.90;;;;;;5005611;28;20041;-62
2021/12/20 00:23:47;;;;;;;32.88;4.68;;;7.00;99.90;;;;;;4988957;28;20529;-63
2021/12/20 00:26:13;;;;;;;18.48;4.43;;;7.00;99.90;;;;;;5003277;28;20041;-63
2021/12/20 00:28:39;;;;;;;17.55;3.25;;;7.00;99.90;;;;;;5001053;28;20046;-63
2021/12/20 00:31:05;;;;;;;20.90;3.72;;;7.00;99.90;;;;;;5003262;28;20087;-63
2021/12/20 00:33:35;;;;;;;28.98;5.00;;;7.00;99.90;;;;;;4989870;28;20428;-62
2021/12/20 00:36:06;;;;;;;25.25;4.43;;;7.00;99.90;;;;;;4996739;28;20095;-63
2021/12/20 00:41:17;;;;;;;21.05;4.25;;;7.00;99.90;;;;;;5014526;28;20280;-64
2021/12/20 00:43:43;;;;;;;27.65;4.38;;;7.00;99.90;;;;;;5021736;28;20444;-63
2021/12/20 00:46:09;;;;;;;20.88;4.22;;;7.00;99.90;;;;;;4999738;28;20153;-63
2021/12/20 00:48:34;;;;;;;21.40;4.90;;;7.00;99.90;;;;;;5008545;28;20527;-62
2021/12/20 00:51:00;;;;;;;21.67;3.83;;;7.00;99.90;;;;;;4997834;28;20516;-63
2021/12/20 00:53:26;;;;;;;19.50;3.75;;;7.00;99.90;;;;;;5002092;28;20080;-62
2021/12/20 00:55:52;;;;;;;23.02;4.15;;;7.00;99.90;;;;;;4997863;28;20061;-63
2021/12/20 00:58:18;;;;;;;19.10;3.10;;;7.00;99.90;;;;;;4965242;28;20041;-63
2021/12/20 01:00:48;;;;;;;21.92;3.95;;;6.90;99.90;;;;;;5004115;28;20507;-63
2021/12/20 01:03:15;;;;;;;18.88;3.30;;;7.00;99.90;;;;;;4985481;28;20037;-62
2021/12/20 01:05:41;;;;;;;26.55;3.83;;;6.90;99.90;;;;;;4986705;28;20047;-62
2021/12/20 01:08:09;;;;;;;20.70;3.45;;;6.90;99.90;;;;;;4997252;28;20037;-62
2021/12/20 01:10:37;;;;;;;19.13;4.28;;;7.00;99.90;;;;;;5023083;28;20510;-63
2021/12/20 01:13:05;;;;;;;20.98;3.88;;;7.00;99.90;;;;;;4986588;28;20046;-63
2021/12/20 01:15:44;;;;;;;20.88;3.67;;;7.00;99.90;;;;;;4981611;28;20053;-63
2021/12/20 01:18:12;;;;;;;21.35;4.35;;;7.00;99.90;;;;;;4986494;28;20046;-63
2021/12/20 01:20:37;;;;;;;27.73;3.95;;;7.00;99.90;;;;;;4999748;28;20045;-63
2021/12/20 01:23:04;;;;;;;25.00;4.30;;;6.90;99.90;;;;;;5029337;28;20451;-63
2021/12/20 01:25:30;;;;;;;22.48;3.63;;;6.90;99.90;;;;;;4983426;28;20649;-63
2021/12/20 01:27:56;;;;;;;25.02;5.32;;;6.90;99.90;;;;;;4989571;28;20049;-63
2021/12/20 01:30:24;;;;;;;19.35;3.90;;;6.90;99.90;;;;;;4984523;28;20072;-63
2021/12/20 01:32:50;;;;;;;17.38;2.90;;;6.90;99.90;;;;;;5019934;28;20499;-62
2021/12/20 01:35:17;;;;;;;18.23;3.50;;;6.90;99.90;;;;;;4997880;28;20046;-63
2021/12/20 01:37:43;;;;;;;22.95;3.65;;;6.90;99.90;;;;;;5015675;28;20046;-63
2021/12/20 01:40:12;;;;;;;22.02;3.28;;;6.90;99.90;;;;;;4985146;28;20103;-63
2021/12/20 01:42:38;;;;;;;15.05;2.55;;;6.90;99.90;;;;;;4999150;28;20044;-64
2021/12/20 01:45:06;;;;;;;16.48;2.70;;;6.90;99.90;;;;;;4970768;28;20041;-63
2021/12/20 01:47:36;;;;;;;20.40;3.03;;;6.90;99.90;;;;;;4982185;28;20046;-63
2021/12/20 01:50:14;;;;;;;10.93;2.42;;;6.90;99.90;;;;;;4989921;28;20037;-63
2021/12/20 01:52:42;;;;;;;14.77;2.90;;;6.90;99.90;;;;;;4995458;28;20137;-63
2021/12/20 01:55:11;;;;;;;13.95;2.63;;;6.90;99.90;;;;;;5001884;28;20044;-64
2021/12/20 01:57:37;;;;;;;14.93;2.40;;;6.90;99.90;;;;;;4993254;28;20165;-63
2021/12/20 02:00:28;;;;;;;12.57;3.08;;;6.90;99.90;;;;;;4988497;28;20726;-64
2021/12/20 02:03:00;;;;;;;12.93;2.13;;;6.90;99.90;;;;;;5005208;28;22200;-63
2021/12/20 02:05:55;;;;;;;12.27;2.10;;;6.90;99.90;;;;;;5003358;28;20049;-63
2021/12/20 02:08:26;;;;;;;14.95;2.45;;;6.90;99.90;;;;;;5005645;28;20128;-63
2021/12/20 02:10:55;;;;;;;7.22;1.80;;;6.90;99.90;;;;;;5022076;23;20042;-86
2021/12/20 02:13:24;;;;;;;14.98;2.50;;;6.90;99.90;;;;;;4977363;28;20408;-84
2021/12/20 02:15:50;;;;;;;14.88;2.10;;;6.90;99.90;;;;;;4972828;28;20061;-84
2021/12/20 02:18:16;;;;;;;7.53;1.35;;;6.90;99.90;;;;;;4979578;28;20394;-84
2021/12/20 02:20:42;;;;;;;14.77;2.53;;;6.90;99.90;;;;;;4974365;28;20097;-85
2021/12/20 02:23:08;;;;;;;10.05;2.00;;;6.90;99.90;;;;;;4994646;28;20034;-84
2021/12/20 02:25:35;;;;;;;9.15;2.20;;;6.90;99.90;;;;;;4994358;28;20050;-85
2021/12/20 02:28:07;;;;;;;9.48;1.52;;;7.10;99.90;;;;;;4994017;28;20044;-84
2021/12/20 02:38:19;;;;;;;9.07;2.00;;;6.90;99.90;;;;;;4993790;28;20046;-83
2021/12/20 02:40:46;;;;;;;10.85;2.17;;;7.10;99.90;;;;;;4988889;28;20394;-85
2021/12/20 02:43:16;;;;;;;11.63;2.47;;;7.10;99.90;;;;;;4976821;28;20526;-85
2021/12/20 02:45:43;;;;;;;16.83;2.42;;;7.00;99.90;;;;;;4998079;28;20057;-85
2021/12/20 02:48:09;;;;;;;12.75;2.03;;;7.10;99.90;;;;;;5010677;28;20030;-86
2021/12/20 02:50:34;;;;;;;7.32;1.48;;;6.90;99.90;;;;;;5017283;28;20048;-84
2021/12/20 02:53:00;;;;;;;10.82;1.90;;;6.90;99.90;;;;;;4975580;28;20033;-85
2021/12/20 02:55:26;;;;;;;8.32;1.63;;;7.10;99.90;;;;;;4982875;28;20038;-84
2021/12/20 02:57:52;;;;;;;10.05;1.73;;;6.90;99.90;;;;;;4998451;28;20057;-84
2021/12/20 03:00:18;;;;;;;18.20;2.67;;;6.90;99.90;;;;;;5011263;28;20041;-84
2021/12/20 03:02:44;;;;;;;19.33;2.70;;;6.90;99.90;;;;;;4993796;28;20037;-84
2021/12/20 03:05:12;;;;;;;13.95;2.60;;;7.10;99.90;;;;;;4994072;28;20041;-85
2021/12/20 03:07:48;;;;;;;10.80;1.80;;;6.90;99.90;;;;;;4997519;28;20042;-84
2021/12/20 03:10:15;;;;;;;17.65;1.88;;;6.80;99.90;;;;;;5008732;28;20042;-83
2021/12/20 03:12:41;;;;;;;9.30;2.13;;;6.80;99.90;;;;;;4979014;28;20041;-85
2021/12/20 03:15:15;;;;;;;13.63;1.90;;;6.80;99.90;;;;;;4963235;28;20295;-85
2021/12/20 03:17:41;;;;;;;10.05;2.10;;;6.80;99.90;;;;;;4975611;28;20038;-84
2021/12/20 03:20:07;;;;;;;11.35;2.65;;;6.80;99.90;;;;;;4981108;28;20413;-85
2021/12/20 03:22:33;;;;;;;12.38;1.85;;;6.80;99.90;;;;;;4994690;28;20420;-84
2021/12/20 03:24:59;;;;;;;12.32;2.05;;;6.90;99.90;;;;;;4983152;28;20125;-84
2021/12/20 03:27:24;;;;;;;11.30;1.95;;;7.30;99.90;;;;;;4997410;28;20069;-85
2021/12/20 03:29:50;;;;;;;11.05;1.60;;;6.70;99.90;;;;;;5002306;28;20042;-84
2021/12/20 03:32:16;;;;;;;8.93;1.92;;;6.70;99.90;;;;;;4993055;28;20119;-84
2021/12/20 03:34:42;;;;;;;11.60;1.92;;;6.70;99.90;;;;;;4978700;28;20263;-84
2021/12/20 03:37:07;;;;;;;9.82;1.90;;;6.80;99.90;;;;;;4975950;28;20046;-83
2021/12/20 03:39:33;;;;;;;13.93;1.95;;;6.80;99.90;;;;;;5000451;28;20465;-84
2021/12/20 03:42:00;;;;;;;9.95;1.88;;;6.70;99.90;;;;;;4961736;28;20037;-85
2021/12/20 03:44:26;;;;;;;10.40;1.67;;;6.70;99.90;;;;;;5012869;28;20073;-84
2021/12/20 03:46:52;;;;;;;8.25;1.20;;;6.70;99.90;;;;;;4983771;28;20045;-84
2021/12/20 03:49:18;;;;;;;9.98;2.03;;;6.60;99.90;;;;;;4977555;28;20040;-84
2021/12/20 03:51:43;;;;;;;15.35;1.88;;;6.60;99.90;;;;;;4990654;28;20033;-86
2021/12/20 03:54:09;;;;;;;17.85;2.67;;;6.50;99.90;;;;;;4963220;28;20371;-84
2021/12/20 03:56:35;;;;;;;7.22;1.80;;;6.50;99.90;;;;;;4999012;28;20080;-84
2021/12/20 03:59:02;;;;;;;14.70;2.58;;;6.50;99.90;;;;;;4991623;28;20121;-84
2021/12/20 04:01:27;;;;;;;13.50;1.83;;;6.40;99.90;;;;;;4998468;28;20041;-84
2021/12/20 04:03:53;;;;;;;12.57;2.20;;;6.40;99.90;;;;;;4959599;28;20039;-84
2021/12/20 04:06:19;;;;;;;9.23;1.77;;;6.40;99.90;;;;;;4977098;28;20034;-84
2021/12/20 04:08:46;;;;;;;15.55;2.22;;;6.30;99.90;;;;;;4981293;28;20758;-83
2021/12/20 04:11:12;;;;;;;8.35;1.50;;;6.30;99.90;;;;;;4991687;28;20046;-84
2021/12/20 04:13:37;;;;;;;5.38;1.60;;;6.40;99.90;;;;;;5009328;28;20041;-84
2021/12/20 04:16:04;;;;;;;7.00;1.40;;;6.30;99.90;;;;;;4975892;28;20100;-85
2021/12/20 04:18:30;;;;;;;8.38;1.65;;;6.30;99.90;;;;;;4999010;28;20414;-85
2021/12/20 04:20:56;;;;;;;10.85;2.45;;;6.60;99.90;;;;;;5005892;28;20056;-85
2021/12/20 04:23:22;;;;;;;5.85;1.80;;;6.30;99.90;;;;;;4978053;28;20038;-84
2021/12/20 04:25:48;;;;;;;11.18;1.90;;;6.30;99.90;;;;;;4993903;28;20144;-84
2021/12/20 04:28:14;;;;;;;8.40;2.45;;;6.20;99.90;;;;;;4980976;28;20470;-84
2021/12/20 04:30:40;;;;;;;6.70;1.30;;;6.20;99.90;;;;;;4963391;28;20468;-84
2021/12/20 04:33:06;;;;;;;11.55;1.55;;;6.20;99.90;;;;;;4977154;28;20046;-83
2021/12/20 04:35:32;;;;;;;13.10;2.97;;;6.20;99.90;;;;;;4997581;28;20045;-85
2021/12/20 04:37:59;;;;;;;6.90;1.67;;;6.20;99.90;;;;;;4978873;28;20404;-84
2021/12/20 04:40:26;;;;;;;7.75;1.60;;;6.60;99.90;;;;;;4994046;28;20536;-84
2021/12/20 04:42:57;;;;;;;11.35;1.73;;;6.50;99.90;;;;;;5000342;28;20073;-84
2021/12/20 04:45:25;;;;;;;6.95;1.40;;;6.10;99.90;;;;;;4992260;28;20041;-85
2021/12/20 04:47:51;;;;;;;6.88;1.40;;;6.20;99.90;;;;;;4996124;28;20085;-84
2021/12/20 04:50:17;;;;;;;11.07;1.95;;;6.30;99.90;;;;;;4957716;28;20109;-84
2021/12/20 04:52:43;;;;;;;8.20;1.85;;;6.10;99.90;;;;;;5019029;28;20081;-83
2021/12/20 04:55:11;;;;;;;5.95;1.33;;;6.10;99.90;;;;;;4982115;28;20530;-84
2021/12/20 04:57:38;;;;;;;9.10;1.35;;;6.00;99.90;;;;;;4981047;28;20046;-85
2021/12/20 05:00:08;;;;;;;9.70;3.60;;;6.00;99.90;;;;;;4988988;28;20125;-84
2021/12/20 05:02:34;;;;;;;12.23;2.10;;;6.00;99.90;;;;;;4978757;28;20068;-86
2021/12/20 05:05:00;;;;;;;6.93;1.52;;;6.00;99.90;;;;;;4973941;28;20065;-85
2021/12/20 05:07:27;;;;;;;12.27;2.60;;;6.00;99.90;;;;;;4991345;28;20128;-84
2021/12/20 05:09:58;;;;;;;6.72;1.65;;;6.10;99.90;;;;;;4992267;28;20423;-85
2021/12/20 05:12:24;;;;;;;14.30;3.13;;;6.00;99.90;;;;;;4974340;28;20473;-84
2021/12/20 05:14:50;;;;;;;7.90;1.70;;;6.10;99.90;;;;;;4996389;28;20049;-83
2021/12/20 05:17:15;;;;;;;7.45;1.40;;;5.80;99.90;;;;;;4973407;28;20034;-85
2021/12/20 05:19:42;;;;;;;8.35;1.70;;;5.90;99.90;;;;;;4991685;28;20045;-84
2021/12/20 05:22:09;;;;;;;12.75;2.00;;;5.80;99.90;;;;;;4983144;28;20105;-84
2021/12/20 05:24:35;;;;;;;9.90;1.70;;;5.90;99.90;;;;;;4978614;28;20033;-84
2021/12/20 05:27:01;;;;;;;6.53;1.52;;;6.30;99.90;;;;;;4964294;28;20029;-83
2021/12/20 05:29:26;;;;;;;9.48;1.48;;;5.90;99.90;;;;;;4962113;28;20927;-84
2021/12/20 05:31:53;;;;;;;8.82;2.80;;;6.10;99.90;;;;;;4997933;28;20120;-84
2021/12/20 05:34:20;;;;;;;8.63;1.67;;;6.00;99.90;;;;;;4993163;28;20037;-84
2021/12/20 05:36:46;;;;;;;12.30;1.88;;;6.20;99.90;;;;;;4971617;28;20038;-84
2021/12/20 05:39:12;;;;;;;7.53;1.80;;;6.10;99.90;;;;;;4979048;28;20034;-87
2021/12/20 05:41:37;;;;;;;8.77;1.92;;;6.00;99.90;;;;;;4992043;28;20043;-84
2021/12/20 05:44:03;;;;;;;10.20;2.80;;;5.90;99.90;;;;;;4992208;28;20030;-85
2021/12/20 05:46:29;;;;;;;10.88;1.67;;;6.00;99.90;;;;;;4969562;28;20049;-84
2021/12/20 05:48:55;;;;;;;8.75;1.65;;;6.00;99.90;;;;;;4982478;28;20052;-83
2021/12/20 05:51:21;;;;;;;12.82;1.90;;;6.10;99.90;;;;;;4990449;28;20437;-84
2021/12/20 05:53:47;;;;;;;11.55;2.00;;;6.00;99.90;;;;;;4971197;28;20057;-85
2021/12/20 05:56:12;;;;;;;11.30;1.75;;;6.00;99.90;;;;;;5008435;28;20391;-85
2021/12/20 05:58:38;;;;;;;8.00;1.80;;;6.00;99.90;;;;;;5011103;28;20048;-84
2021/12/20 06:01:04;;;;;;;10.25;1.70;;;6.10;99.90;;;;;;4945476;28;20498;-81
2021/12/20 06:03:30;;;;;;;13.00;2.65;;;6.10;99.90;;;;;;4990321;28;20037;-81
2021/12/20 06:05:56;;;;;;;9.32;2.33;;;6.10;99.90;;;;;;4974973;28;20108;-82
2021/12/20 06:08:22;;;;;;;10.52;1.50;;;6.10;99.90;;;;;;5008383;28;20037;-84
2021/12/20 06:10:48;;;;;;;6.88;1.48;;;6.20;99.90;;;;;;4998232;28;20051;-82
2021/12/20 06:13:13;;;;;;;10.98;1.85;;;6.30;99.90;;;;;;4973814;28;20125;-83
2021/12/20 06:15:39;;;;;;;12.32;2.42;;;6.10;99.90;;;;;;4988634;28;20081;-84
2021/12/20 06:18:05;;;;;;;8.32;1.88;;;6.20;99.90;;;;;;4960943;28;20425;-83
2021/12/20 06:20:30;;;;;;;9.55;2.63;;;6.10;99.90;;;;;;4974527;28;20350;-83
2021/12/20 06:22:56;;;;;;;10.40;2.10;;;6.10;99.90;;;;;;4980627;28;20029;-84
2021/12/20 06:25:22;;;;;;;10.52;2.30;;;6.50;99.90;;;;;;4967037;28;20038;-83
2021/12/20 06:27:48;;;;;;;11.57;2.75;;;6.10;99.90;;;;;;4992203;28;20041;-83
2021/12/20 06:30:14;;;;;;;14.32;2.70;;;6.30;99.90;;;;;;4976358;28;20100;-85
2021/12/20 06:32:42;;;;;;;6.50;1.92;;;6.10;99.90;;;;;;5014406;28;20038;-87
2021/12/20 06:35:09;;;;;;;12.73;1.85;;;6.00;99.90;;;;;;5027568;28;20273;-86
2021/12/20 06:37:36;;;;;;;11.60;2.40;;;6.00;99.90;;;;;;5005331;28;20421;-85
2021/12/20 06:40:03;;;;;;;7.95;1.92;;;6.10;99.90;;;;;;5007712;28;20047;-85
2021/12/20 06:42:29;;;;;;;12.65;2.53;;;6.10;99.90;;;;;;5027547;28;20064;-84
2021/12/20 06:44:55;;;;;;;7.97;2.33;;;6.00;99.90;;;;;;5009303;28;20046;-83
2021/12/20 06:47:21;;;;;;;9.77;2.08;;;6.00;99.90;;;;;;4974566;28;20034;-83
2021/12/20 06:49:47;;;;;;;7.18;1.88;;;6.00;99.90;;;;;;5007604;28;20084;-83
2021/12/20 06:52:13;;;;;;;8.25;1.70;;;6.00;99.90;;;;;;4963676;28;20045;-81
2021/12/20 06:54:39;;;;;;;9.20;2.35;;;6.10;99.90;;;;;;4999916;28;20042;-85
2021/12/20 06:57:04;;;;;;;13.60;2.78;;;6.00;99.90;;;;;;4973968;28;20038;-85
2021/12/20 06:59:30;;;;;;;12.27;2.78;;;6.10;99.90;;;;;;5004672;28;20066;-83
2021/12/20 07:01:56;;;;;;;12.60;2.53;;;6.10;99.90;;;;;;5019760;28;20060;-83
2021/12/20 07:04:22;;;;;;;11.23;2.03;;;6.00;99.90;;;;;;5002826;28;20506;-82
2021/12/20 07:06:47;;;;;;;12.15;3.40;;;5.90;99.90;;;;;;4978835;28;20609;-82
2021/12/20 07:09:14;;;;;;;10.90;2.70;;;6.00;99.90;;;;;;4983701;28;20072;-84
2021/12/20 07:11:41;;;;;;;11.52;2.00;;;6.00;99.90;;;;;;4999048;28;20052;-84
2021/12/20 07:14:07;;;;;;;11.65;2.33;;;6.00;99.90;;;;;;4989728;28;20045;-82
2021/12/20 07:16:35;;;;;;;12.48;2.70;;;6.00;99.90;;;;;;4986392;28;20069;-83
2021/12/20 07:19:02;;;;;;;11.57;2.72;;;5.90;99.90;;;;;;5007994;28;20105;-84
2021/12/20 07:21:28;;;;;;;14.07;2.28;;;6.00;99.90;;;;;;4999039;28;20377;-83
2021/12/20 07:23:54;;;;;;;15.98;2.63;;;5.90;99.90;;;;;;4999014;28;20069;-83
2021/12/20 07:26:20;;;;;;;9.00;2.63;;;5.80;99.90;;;;;;4996488;28;20042;-82
2021/12/20 07:28:46;;;;;;;9.77;2.58;;;5.80;99.90;;;;;;5013107;28;20069;-82
2021/12/20 07:31:13;;;;;;;11.00;2.40;;;5.80;99.90;;;;;;5005244;28;20049;-82
2021/12/20 07:33:39;;;;;;;13.32;2.42;;;5.80;99.90;;;;;;4997768;28;20065;-84
2021/12/20 07:36:06;;;;;;;9.15;1.90;;;5.80;99.90;;;;;;5011029;28;20077;-82
2021/12/20 07:38:33;;;;;;;13.23;2.30;;;5.80;99.90;;;;;;4996513;28;20029;-83
2021/12/20 07:40:59;;;;;;;15.60;2.38;;;5.90;99.90;;;;;;4996557;28;20038;-85
2021/12/20 07:43:25;;;;;;;17.20;3.65;;;6.10;99.90;;;;;;5005001;28;20110;-82
2021/12/20 07:45:50;;;;;;;13.63;2.40;;;5.70;99.90;;;;;;4979444;28;20064;-82
2021/12/20 07:48:18;;;;;;;12.23;2.90;;;5.70;99.90;;;;;;5000123;28;20038;-84
2021/12/20 07:50:45;;;;;;;8.90;2.60;;;5.60;99.90;;;;;;4984374;28;20041;-82
2021/12/20 07:53:11;;;;;;;15.55;3.47;;;5.50;99.90;;;;;;4993813;28;20041;-82
2021/12/20 07:55:37;;;;;;;8.55;3.33;;;5.60;99.90;;;;;;5006030;28;20049;-83
2021/12/20 07:58:03;;;;;;;15.88;3.90;;;5.40;99.90;;;;;;5013576;28;20037;-82
2021/12/20 08:00:29;;;;;;;14.85;3.20;;;5.40;99.90;;;;;;4968558;28;21526;-83
2021/12/20 08:02:56;;;;;;;14.27;3.67;;;5.40;99.90;;;;;;4981637;28;20041;-84
2021/12/20 08:05:23;;;;;;;12.52;3.33;;;5.30;99.90;;;;;;5014810;28;20130;-84
2021/12/20 08:07:50;;;;;;;8.52;3.65;;;5.30;99.90;;;;;;4995782;28;20029;-82
2021/12/20 08:10:35;;;;;;;13.93;3.65;;;5.30;99.90;;;;;;4993644;28;20041;-83
2021/12/20 08:13:05;;;;;;;14.13;3.35;;;5.30;99.90;;;;;;4991053;28;20640;-83
2021/12/20 08:18:13;;;;;;;11.93;3.58;;;5.20;99.90;;;;;;5030516;28;20418;-62
2021/12/20 08:20:39;;;;;;;14.27;3.25;;;5.20;99.90;;;;;;4991871;28;20041;-61
2021/12/20 08:23:05;;;;;;;9.95;3.03;;;5.30;99.90;;;;;;5001972;28;20037;-61
2021/12/20 08:25:31;;;;;;;15.05;4.75;;;5.30;99.90;;;;;;5009446;28;20518;-61
2021/12/20 08:27:57;;;;;;;11.52;3.90;;;5.30;99.90;;;;;;4983409;28;20250;-61
2021/12/20 08:30:23;;;;;;;11.73;2.95;;;5.30;99.90;;;;;;4992825;28;20465;-61
2021/12/20 08:32:50;;;;;;;10.55;3.05;;;5.40;99.90;;;;;;5005709;28;20125;-62
2021/12/20 08:35:16;;;;;;;12.25;3.40;;;5.40;99.90;;;;;;5008218;28;20052;-62
2021/12/20 08:37:42;;;;;;;13.43;3.05;;;5.30;99.90;;;;;;5017974;28;20048;-61
2021/12/20 08:40:11;;;;;;;14.73;2.70;;;5.40;99.90;;;;;;4970850;28;20033;-62
2021/12/20 08:42:38;;;;;;;13.98;2.85;;;5.40;99.90;;;;;;5009606;28;20561;-61
2021/12/20 08:45:06;;;;;;;9.80;2.67;;;5.50;99.90;;;;;;4995164;28;20069;-61
2021/12/20 08:47:32;;;;;;;12.65;2.70;;;5.50;99.90;;;;;;4997725;28;20410;-64
2021/12/20 08:50:00;;;;;;;8.48;2.42;;;5.60;99.90;;;;;;5000704;28;20129;-62
2021/12/20 08:52:26;;;;;;;14.38;3.05;;;5.60;99.90;;;;;;5006118;28;20044;-60
2021/12/20 08:54:52;;;;;;;14.77;3.00;;;5.60;99.90;;;;;;4996859;28;20057;-61
2021/12/20 08:57:18;;;;;;;12.70;3.22;;;5.70;99.90;;;;;;4998268;28;20029;-60
2021/12/20 08:59:45;;;;;;;11.10;2.55;;;5.70;99.90;;;;;;5024380;28;20087;-59
2021/12/20 09:02:11;;;;;;;13.13;3.58;;;5.80;99.90;;;;;;5019565;28;20530;-61
2021/12/20 09:04:38;;;;;;;11.15;2.90;;;5.80;99.90;;;;;;5009701;28;20045;-61
2021/12/20 09:07:05;;;;;;;10.13;2.30;;;5.90;99.90;;;;;;4995176;28;20407;-60
2021/12/20 09:09:37;;;;;;;12.07;2.67;;;5.90;99.90;;;;;;5002100;28;20075;-62
2021/12/20 09:12:04;;;;;;;14.73;5.00;;;6.00;99.90;;;;;;5029488;28;20496;-62
2021/12/20 09:14:33;;;;;;;14.98;4.28;;;6.00;99.90;;;;;;5016004;28;20054;-63
2021/12/20 09:16:59;;;;;;;23.73;8.23;;;6.10;99.90;;;;;;4992863;28;20411;-63
2021/12/20 09:19:25;;;;;;;22.23;6.95;;;6.10;99.90;;;;;;5017750;28;20095;-62
2021/12/20 09:21:51;;;;;;;19.17;5.15;;;6.10;99.90;;;;;;5004895;28;20041;-63
2021/12/20 09:24:17;;;;;;;16.45;5.50;;;6.10;99.90;;;;;;5000958;28;20079;-64
2021/12/20 09:26:42;;;;;;;16.83;4.30;;;6.10;99.90;;;;;;4988542;28;20056;-63
2021/12/20 09:29:08;;;;;;;11.20;3.40;;;6.10;99.90;;;;;;5011747;28;20099;-62
2021/12/20 09:31:34;;;;;;;14.50;2.88;;;6.10;99.90;;;;;;5007695;28;20069;-60
2021/12/20 09:34:00;;;;;;;17.90;4.25;;;6.20;99.90;;;;;;5001109;28;20049;-62
2021/12/20 09:36:29;;;;;;;16.67;3.25;;;6.20;99.90;;;;;;5004439;28;20045;-63
2021/12/20 09:38:56;;;;;;;11.20;2.88;;;6.20;99.90;;;;;;5009156;28;20407;-63
2021/12/20 09:44:01;;;;;;;18.17;4.10;;;6.30;99.90;;;;;;5007252;28;20144;-63
2021/12/20 09:46:28;;;;;;;16.30;4.78;;;6.30;99.90;;;;;;5012760;28;20053;-62
2021/12/20 09:48:54;;;;;;;19.30;3.72;;;6.40;99.90;;;;;;5024347;28;21004;-62
2021/12/20 09:51:20;;;;;;;21.60;3.42;;;6.40;99.90;;;;;;5008424;28;20041;-62
2021/12/20 09:53:47;;;;;;;14.07;3.90;;;6.60;99.90;;;;;;5009370;28;20038;-63
2021/12/20 09:56:13;;;;;;;13.82;3.78;;;6.60;99.90;;;;;;5021875;28;20053;-63
2021/12/20 09:58:41;;;;;;;13.80;3.05;;;6.60;99.90;;;;;;4993705;28;20046;-63
2021/12/20 10:01:09;;;;;;;18.33;4.43;;;6.60;99.90;;;;;;5006750;28;20034;-63
2021/12/20 10:03:36;;;;;;;19.77;10.20;;;6.60;99.90;;;;;;4998813;28;20068;-63
2021/12/20 10:06:03;;;;;;;46.08;17.60;;;6.60;99.90;;;;;;4989492;28;20121;-63
2021/12/20 10:08:33;;;;;;;27.60;13.02;;;6.70;99.90;;;;;;5009700;28;20111;-62
2021/12/20 10:11:16;;;;;;;25.83;8.55;;;6.80;99.90;;;;;;4992314;28;20160;-63
2021/12/20 10:13:42;;;;;;;17.92;3.90;;;6.90;99.90;;;;;;5008097;28;20136;-63
2021/12/20 10:16:20;;;;;;;18.83;3.80;;;6.90;99.90;;;;;;4987100;28;20554;-62
2021/12/20 10:18:47;;;;;;;22.05;4.53;;;7.00;99.90;;;;;;5015609;28;20091;-62
2021/12/20 10:21:13;;;;;;;19.98;3.67;;;7.00;99.90;;;;;;5012788;28;20064;-63
2021/12/20 10:23:42;;;;;;;21.20;3.60;;;7.10;99.90;;;;;;5007691;28;20037;-64
2021/12/20 10:26:21;;;;;;;13.63;3.45;;;7.10;99.90;;;;;;5002459;28;21112;-62
2021/12/20 10:28:51;;;;;;;20.85;3.33;;;7.20;99.90;;;;;;5015603;28;20057;-64
2021/12/20 10:31:19;;;;;;;20.48;4.13;;;7.30;99.90;;;;;;5020854;28;20092;-62
2021/12/20 10:33:57;;;;;;;17.67;3.85;;;7.30;99.90;;;;;;5014285;28;20120;-62
2021/12/20 10:36:24;;;;;;;15.88;3.63;;;7.40;99.90;;;;;;5001755;28;20622;-63
2021/12/20 10:38:56;;;;;;;17.30;4.20;;;7.50;99.90;;;;;;5025558;28;20045;-63
2021/12/20 10:41:35;;;;;;;20.88;4.40;;;7.50;99.90;;;;;;5026354;28;20049;-63
2021/12/20 10:44:14;;;;;;;14.00;3.90;;;7.60;99.90;;;;;;5015108;28;20045;-63
2021/12/20 10:46:49;;;;;;;22.65;4.00;;;7.60;99.90;;;;;;5004149;28;20083;-60
2021/12/20 10:49:15;;;;;;;18.75;5.75;;;7.60;99.90;;;;;;5024280;28;20200;-62
2021/12/20 10:51:48;;;;;;;21.05;3.53;;;7.60;99.90;;;;;;5003725;28;20515;-63
2021/12/20 10:54:18;;;;;;;22.17;4.27;;;7.70;99.90;;;;;;5020218;28;20516;-64
2021/12/20 10:57:02;;;;;;;19.02;4.95;;;7.70;99.90;;;;;;4995204;28;20037;-62
2021/12/20 10:59:29;;;;;;;;;;;7.80;99.90;;;;;;4982369;28;20073;-61
2021/12/20 11:04:56;;;;;;;15.73;4.47;;;7.90;99.90;;;;;;5004914;28;20053;-62
2021/12/20 11:09:58;;;;;;;17.63;5.10;;;8.10;99.90;;;;;;5011116;28;20484;-64
2021/12/20 11:12:31;;;;;;;21.38;4.15;;;8.10;99.90;;;;;;4987921;28;20690;-64
2021/12/20 11:15:04;;;;;;;15.52;4.30;;;8.10;99.90;;;;;;5020505;28;20058;-62
2021/12/20 11:17:30;;;;;;;20.73;4.07;;;8.10;99.90;;;;;;5000785;28;20037;-64
2021/12/20 11:19:57;;;;;;;13.45;3.38;;;8.10;99.90;;;;;;4992675;28;20041;-62
2021/12/20 11:22:27;;;;;;;21.27;4.18;;;8.10;99.90;;;;;;5004274;28;20065;-62
2021/12/20 11:25:05;;;;;;;13.88;3.67;;;8.30;99.90;;;;;;4987292;28;20037;-62
2021/12/20 11:27:34;;;;;;;16.40;3.50;;;8.30;99.90;;;;;;5015548;28;20060;-64
2021/12/20 11:30:11;;;;;;;18.50;3.95;;;8.30;99.90;;;;;;4992942;28;20084;-62
2021/12/20 11:32:37;;;;;;;19.30;4.60;;;8.30;99.90;;;;;;5023646;28;20041;-63
2021/12/20 11:35:04;;;;;;;25.48;4.43;;;8.20;99.90;;;;;;5005237;28;20057;-63
2021/12/20 11:37:30;;;;;;;23.75;5.55;;;8.30;99.90;;;;;;4996086;28;20037;-62
2021/12/20 11:39:58;;;;;;;21.83;4.20;;;8.20;99.90;;;;;;5010414;28;20048;-62
2021/12/20 11:42:25;;;;;;;22.83;4.07;;;8.20;99.90;;;;;;5023610;28;20502;-61
2021/12/20 11:44:55;;;;;;;17.83;4.53;;;8.20;99.90;;;;;;5011423;28;20033;-61
2021/12/20 11:47:27;;;;;;;17.10;3.78;;;8.20;99.90;;;;;;5020974;28;20042;-61
2021/12/20 11:50:08;;;;;;;18.33;4.00;;;8.30;99.90;;;;;;5003523;28;20179;-63
2021/12/20 11:52:39;;;;;;;22.75;4.20;;;8.40;99.90;;;;;;5021978;28;20037;-63
2021/12/20 11:55:23;;;;;;;22.55;3.67;;;8.40;99.90;;;;;;5001302;28;20488;-63
2021/12/20 11:57:51;;;;;;;20.42;3.92;;;8.50;99.90;;;;;;4977562;28;20046;-62
2021/12/20 12:00:18;;;;;;;22.38;4.18;;;8.50;99.90;;;;;;5010106;28;20128;-62
2021/12/20 12:02:45;;;;;;;20.58;3.92;;;8.60;99.90;;;;;;5027756;28;20329;-63
2021/12/20 12:05:17;;;;;;;22.83;4.35;;;8.50;99.90;;;;;;5007074;28;20067;-64
2021/12/20 12:07:45;;;;;;;18.63;3.50;;;8.40;99.90;;;;;;5008531;28;20045;-63
2021/12/20 12:10:16;;;;;;;21.67;4.32;;;8.40;99.90;;;;;;5017865;28;20317;-63
2021/12/20 12:12:45;;;;;;;25.88;4.28;;;8.30;99.90;;;;;;5007488;28;20074;-63
2021/12/20 12:15:32;;;;;;;16.55;3.92;;;8.40;99.90;;;;;;5023758;28;20041;-64
2021/12/20 12:18:04;;;;;;;18.40;3.42;;;8.40;99.90;;;;;;4998738;28;20049;-63
2021/12/20 12:20:42;;;;;;;24.65;4.95;;;8.30;99.90;;;;;;5005207;28;20041;-64
2021/12/20 12:23:19;;;;;;;20.92;6.15;;;8.20;99.90;;;;;;5024133;28;20673;-63
2021/12/20 12:25:58;;;;;;;33.33;13.38;;;8.20;99.90;;;;;;5000510;28;20041;-63
2021/12/20 12:28:26;;;;;;;30.15;8.38;;;8.20;99.90;;;;;;5011818;28;20222;-63
2021/12/20 12:31:10;;;;;;;21.00;6.78;;;8.10;99.90;;;;;;5023978;28;20044;-63
2021/12/20 12:33:40;;;;;;;26.75;4.82;;;8.20;99.90;;;;;;5026824;28;20041;-62
2021/12/20 12:36:09;;;;;;;19.92;3.50;;;8.00;99.90;;;;;;4986790;28;20093;-63
2021/12/20 12:38:52;;;;;;;25.00;4.30;;;8.00;99.90;;;;;;5005269;28;20077;-63
2021/12/20 12:41:25;;;;;;;17.10;3.83;;;7.90;99.90;;;;;;5009552;28;20049;-64
2021/12/20 12:44:03;;;;;;;21.67;3.73;;;7.90;99.90;;;;;;5023947;28;20045;-63
2021/12/20 12:46:45;;;;;;;18.08;4.30;;;7.90;99.90;;;;;;5008829;28;20304;-63
2021/12/20 12:49:22;;;;;;;19.42;4.05;;;7.80;99.90;;;;;;5026574;28;20061;-63
2021/12/20 12:51:56;;;;;;;13.65;3.72;;;7.80;99.90;;;;;;5020430;28;20049;-63
2021/12/20 12:54:37;;;;;;;18.10;3.97;;;7.80;99.90;;;;;;5025794;28;20095;-63
2021/12/20 12:57:09;;;;;;;19.63;4.93;;;7.70;99.90;;;;;;5004897;28;20044;-63
2021/12/20 12:59:37;;;;;;;24.52;4.40;;;7.60;99.90;;;;;;5036394;28;20128;-63
2021/12/20 13:02:12;;;;;;;20.25;4.00;;;7.50;99.90;;;;;;5018254;28;20603;-63
2021/12/20 13:05:00;;;;;;;14.57;3.80;;;7.50;99.90;;;;;;5021163;28;20057;-62
2021/12/20 13:07:28;;;;;;;17.23;3.72;;;7.50;99.90;;;;;;5003924;28;21043;-63
2021/12/20 13:09:58;;;;;;;18.83;3.80;;;7.50;99.90;;;;;;5005706;28;20040;-63
2021/12/20 13:15:22;;;;;;;18.48;4.93;;;7.50;99.90;;;;;;5010344;28;20049;-62
2021/12/20 13:17:54;;;;;;;16.35;3.33;;;7.40;99.90;;;;;;5004887;28;20610;-63